Time;durP1;ratioP1;P1;durP2;ratioP2;P2;SDS_P1;SDS_P2;PMS_P1;PMS_P2;Temp;Humidity;BMP_temperature;BMP_pressure;BME280_temperature;BME280_humidity;BME280_pressure;Samples;Min_cycle;Max_cycle;Signal;HPM_P1;HPM_P2
2022/11/19 06:57:15;;;;;;;3.45;1.83;;;;;;;8.61;76.85;95864.09;6222287;22;20079;-77
2022/11/19 07:02:58;;;;;;;2.95;2.15;;;;;;;8.65;77.75;95859.31;6223139;23;20031;-79
2022/11/19 07:05:39;;;;;;;1.58;1.48;;;;;;;8.66;76.97;95866.16;6224481;23;20356;-80
2022/11/19 07:08:12;;;;;;;2.10;1.98;;;;;;;8.66;77.19;95855.75;6221674;23;20035;-80
2022/11/19 07:10:47;;;;;;;2.92;2.08;;;;;;;8.66;77.15;95873.94;6222897;23;20016;-80
2022/11/19 07:13:55;;;;;;;3.55;2.10;;;;;;;8.65;77.06;95864.53;6246345;23;20020;-79
2022/11/19 07:16:21;;;;;;;1.88;1.77;;;;;;;8.68;77.04;95873.75;6223499;23;20021;-80
2022/11/19 07:19:09;;;;;;;2.60;1.65;;;;;;;8.69;77.02;95877.97;6226503;23;20020;-80
2022/11/19 07:22:00;;;;;;;2.20;1.80;;;;;;;8.71;77.39;95881.19;6224667;23;20035;-80
2022/11/19 07:24:30;;;;;;;2.72;2.05;;;;;;;8.70;76.80;95875.16;6218579;23;20017;-80
2022/11/19 07:27:01;;;;;;;2.17;2.05;;;;;;;8.66;76.29;95871.34;6217924;23;20020;-79
2022/11/19 07:29:30;;;;;;;2.05;1.85;;;;;;;8.65;76.53;95886.13;6217901;23;20039;-79
2022/11/19 07:32:05;;;;;;;2.08;1.88;;;;;;;8.65;76.09;95885.31;6217200;23;20017;-79
2022/11/19 07:34:49;;;;;;;1.83;1.73;;;;;;;8.62;76.42;95886.50;6229452;23;20027;-81
2022/11/19 07:56:07;;;;;;;4.63;1.90;;;;;;;8.57;77.38;95901.03;6056300;23;1211339;-81
2022/11/19 07:58:36;;;;;;;3.95;2.25;;;;;;;8.54;76.62;95902.22;6079600;23;20471;-80
2022/11/19 08:01:27;;;;;;;;;;;;;;;8.55;76.39;95906.44;6014637;23;20027;-80
2022/11/19 08:04:22;;;;;;;1.95;1.75;;;;;;;8.54;76.74;95904.81;6010872;23;20326;-81
2022/11/19 08:06:55;;;;;;;;;;;;;;;8.55;76.96;95911.66;6049143;23;20105;-81
2022/11/19 08:09:24;;;;;;;2.13;1.92;;;;;;;8.54;76.58;95904.03;6048087;23;19922;-80
2022/11/19 08:12:10;;;;;;;2.85;2.00;;;;;;;8.52;77.70;95906.81;6049052;23;20023;-80
2022/11/19 08:20:37;;;;;;;3.33;2.35;;;;;;;8.57;77.28;95914.03;6050139;23;20019;-81
2022/11/19 08:23:24;;;;;;;3.42;2.45;;;;;;;8.59;76.89;95923.28;6043871;23;20027;-80
2022/11/19 08:29:27;;;;;;;2.60;2.40;;;;;;;8.59;77.18;95915.50;5961479;24;20080;-81
2022/11/19 08:32:16;;;;;;;2.60;2.40;;;;;;;8.60;77.26;95922.28;5979626;24;20044;-81
2022/11/19 08:34:51;;;;;;;2.38;2.17;;;;;;;8.63;77.16;95923.69;6045984;23;20476;-80
2022/11/19 08:43:42;;;;;;;3.17;2.83;;;;;;;8.64;76.62;95920.94;6061561;23;20098;-80
2022/11/19 08:46:39;;;;;;;3.00;2.70;;;;;;;8.64;76.84;95922.72;5996966;24;20419;-80
2022/11/19 08:49:12;;;;;;;3.95;3.30;;;;;;;8.62;77.07;95928.09;6013354;24;20031;-80
2022/11/19 08:51:59;;;;;;;2.75;2.55;;;;;;;8.61;76.79;95926.47;5999432;24;20044;-80
2022/11/19 08:54:43;;;;;;;2.92;2.63;;;;;;;8.63;76.97;95940.09;5987756;24;20084;-80
2022/11/19 08:57:15;;;;;;;2.58;2.25;;;;;;;8.63;76.79;95945.28;5983304;24;20024;-80
2022/11/19 08:59:47;;;;;;;2.67;2.47;;;;;;;8.66;77.24;95944.94;5984822;24;20361;-81
2022/11/19 09:02:19;;;;;;;2.72;2.38;;;;;;;8.69;77.49;95948.97;5960955;24;20024;-80
2022/11/19 09:04:52;;;;;;;3.50;1.98;;;;;;;8.69;76.57;95948.97;5957570;24;20099;-80
2022/11/19 09:07:34;;;;;;;2.28;2.08;;;;;;;8.71;76.66;95951.38;5961721;24;20020;-80
2022/11/19 09:10:06;;;;;;;2.20;1.92;;;;;;;8.69;76.52;95948.16;5960856;24;20028;-80
2022/11/19 09:12:40;;;;;;;1.80;1.70;;;;;;;8.67;76.49;95953.53;5959402;24;20025;-80
2022/11/19 09:15:13;;;;;;;2.03;1.92;;;;;;;8.69;76.76;95953.38;5960009;24;20032;-80
2022/11/19 09:17:47;;;;;;;2.42;2.22;;;;;;;8.73;77.06;95949.41;5961615;24;20031;-80
2022/11/19 09:20:22;;;;;;;3.28;2.65;;;;;;;8.74;76.74;95957.00;5957513;24;20362;-80
2022/11/19 09:22:55;;;;;;;3.03;2.25;;;;;;;8.73;75.83;95959.81;5960240;24;20432;-80
2022/11/19 09:25:28;;;;;;;3.03;2.67;;;;;;;8.71;75.65;95954.00;5960389;24;20154;-80
2022/11/19 09:28:03;;;;;;;3.50;2.38;;;;;;;8.71;75.94;95952.19;5959050;24;20029;-80
2022/11/19 09:30:39;;;;;;;3.15;2.72;;;;;;;8.75;76.45;95955.22;5988096;23;20043;-80
2022/11/19 09:33:31;;;;;;;2.55;2.35;;;;;;;8.77;76.78;95963.66;6015506;23;20026;-80
2022/11/19 09:35:59;;;;;;;4.07;2.83;;;;;;;8.78;76.37;95960.03;6014808;23;20539;-77
2022/11/19 09:38:30;;;;;;;2.92;2.00;;;;;;;8.77;76.04;95966.25;6065829;23;20030;-84
2022/11/19 09:41:29;;;;;;;3.33;3.03;;;;;;;8.78;76.66;95965.25;6120572;23;20046;-83
2022/11/19 09:44:07;;;;;;;3.83;2.40;;;;;;;8.80;75.89;95977.06;6101714;23;20471;-82
2022/11/19 09:46:43;;;;;;;2.33;2.13;;;;;;;8.81;76.90;95970.06;6099970;23;20016;-82
2022/11/19 09:49:17;;;;;;;2.40;2.20;;;;;;;8.79;76.28;95972.88;6098293;23;20097;-82
2022/11/19 09:51:53;;;;;;;2.60;2.22;;;;;;;8.81;77.27;95975.25;6098209;23;20106;-82
2022/11/19 09:54:23;;;;;;;3.28;2.60;;;;;;;8.85;76.66;95979.09;6103811;23;20463;-82
2022/11/19 09:56:55;;;;;;;6.00;2.47;;;;;;;8.91;76.50;95975.78;6103591;23;20015;-82
2022/11/19 09:59:35;;;;;;;2.95;2.50;;;;;;;8.95;76.78;95974.41;6099739;23;20019;-82
2022/11/19 10:02:13;;;;;;;;;;;;;;;9.05;76.55;95971.47;6099674;23;20027;-82
2022/11/19 10:04:43;;;;;;;2.25;2.05;;;;;;;9.17;75.41;95977.00;6099952;23;19921;-82
2022/11/19 10:07:21;;;;;;;3.50;2.10;;;;;;;9.23;75.51;95966.63;6099210;23;20014;-83
2022/11/19 10:14:04;;;;;;;2.90;2.70;;;;;;;9.28;75.52;95968.66;6117898;23;20034;-84
2022/11/19 10:52:46;;;;;;;2.42;1.35;;;;;;;10.53;70.64;95951.28;6036266;23;20092;-82
2022/11/19 11:01:41;;;;;;;1.55;1.20;;;;;;;10.34;69.79;95949.41;6036606;23;20019;-81
2022/11/19 11:04:28;;;;;;;1.83;1.48;;;;;;;10.27;70.03;95949.38;6083986;23;20010;-80
2022/11/19 11:07:19;;;;;;;3.47;1.88;;;;;;;10.21;70.98;95939.72;6094038;23;20082;-81
2022/11/19 11:10:26;;;;;;;2.80;1.80;;;;;;;10.15;70.42;95945.72;6085968;23;20021;-82
2022/11/19 11:15:53;;;;;;;1.98;1.70;;;;;;;10.04;70.23;95945.28;6093251;23;20072;-81
2022/11/19 11:18:30;;;;;;;1.83;1.45;;;;;;;9.99;70.61;95945.06;6091859;23;20071;-80
2022/11/19 11:21:05;;;;;;;1.58;1.30;;;;;;;9.98;71.36;95947.84;6090601;23;20029;-81
2022/11/19 11:23:38;;;;;;;1.10;1.00;;;;;;;9.95;71.04;95948.22;6091244;23;20030;-81
2022/11/19 11:26:11;;;;;;;1.30;1.20;;;;;;;9.94;71.20;95941.44;6088871;23;20023;-81
2022/11/19 11:28:55;;;;;;;1.33;1.20;;;;;;;9.88;70.56;95936.00;6081241;23;20531;-81
2022/11/19 11:31:37;;;;;;;1.77;1.38;;;;;;;9.88;70.81;95922.97;6090954;23;20023;-81
2022/11/19 11:34:07;;;;;;;3.17;1.27;;;;;;;9.89;70.81;95928.97;6087813;23;20019;-81
2022/11/19 11:36:40;;;;;;;1.65;1.33;;;;;;;9.89;69.85;95939.41;6085058;23;20023;-81
2022/11/19 11:39:32;;;;;;;1.95;1.30;;;;;;;9.93;70.14;95934.59;6090517;23;20047;-81
2022/11/19 11:42:11;;;;;;;1.85;1.35;;;;;;;9.94;70.87;95926.59;6088292;23;20023;-80
2022/11/19 11:44:52;;;;;;;2.22;1.20;;;;;;;9.92;70.90;95931.19;6088983;23;20026;-81
2022/11/19 11:47:27;;;;;;;1.77;1.48;;;;;;;9.90;70.28;95933.19;6090839;23;20027;-81
2022/11/19 11:50:05;;;;;;;1.30;1.20;;;;;;;9.86;71.35;95929.34;6091096;23;20022;-81
2022/11/19 11:53:29;;;;;;;3.28;1.10;;;;;;;9.84;71.37;95924.34;6093051;23;20027;-81
2022/11/19 11:56:12;;;;;;;2.20;1.30;;;;;;;9.79;69.93;95924.13;6090407;23;20023;-80
2022/11/19 11:58:49;;;;;;;1.33;1.23;;;;;;;9.72;69.49;95920.69;6087100;23;20086;-80
2022/11/19 12:01:21;;;;;;;1.85;1.33;;;;;;;9.67;71.12;95921.25;6087375;23;20106;-80
2022/11/19 12:03:58;;;;;;;2.10;1.73;;;;;;;9.66;70.97;95926.66;6090510;23;20022;-79
2022/11/19 12:06:36;;;;;;;1.55;1.25;;;;;;;9.65;70.90;95925.06;6090921;23;20019;-80
2022/11/19 12:09:18;;;;;;;2.33;1.40;;;;;;;9.65;71.76;95938.88;6090076;23;20037;-80
2022/11/19 12:11:59;;;;;;;1.65;1.45;;;;;;;9.65;72.16;95938.06;6090125;23;20103;-82
2022/11/19 12:14:32;;;;;;;4.25;1.27;;;;;;;9.62;70.31;95931.47;6088765;23;20019;-80
2022/11/19 12:17:18;;;;;;;1.38;1.27;;;;;;;9.61;70.94;95931.63;6090896;23;20093;-79
2022/11/19 12:20:31;;;;;;;3.38;1.42;;;;;;;9.61;72.23;95929.03;6088690;23;20047;-80
2022/11/19 12:23:26;;;;;;;2.25;1.65;;;;;;;9.60;70.88;95936.06;6089489;23;20019;-81
2022/11/19 12:26:20;;;;;;;2.67;1.50;;;;;;;9.56;71.89;95936.63;6091708;23;20029;-80
2022/11/19 12:29:05;;;;;;;1.98;1.30;;;;;;;9.55;72.05;95935.00;6083877;23;20029;-81
2022/11/19 12:31:53;;;;;;;4.80;2.88;;;;;;;9.55;71.69;95933.19;6090653;23;20019;-80
2022/11/19 12:34:45;;;;;;;2.88;1.50;;;;;;;9.54;72.06;95936.00;6085912;23;20030;-81
2022/11/19 12:37:28;;;;;;;4.00;1.58;;;;;;;9.54;72.43;95930.81;6079252;23;20019;-81
2022/11/19 12:40:11;;;;;;;5.25;1.30;;;;;;;9.53;72.12;95929.19;6086422;23;20018;-81
2022/11/19 12:42:48;;;;;;;;;;;;;;;9.55;72.11;95930.59;6097884;23;20022;-82
2022/11/19 14:02:24;;;;;;;1.90;1.73;;;;;;;9.01;73.12;95952.84;6094756;23;20045;-81
2022/11/19 16:19:33;;;;;;;0.60;0.60;;;;;;;8.20;73.06;95989.41;6074839;23;20033;-82
2022/11/19 17:01:06;;;;;;;2.03;1.58;;;;;;;7.73;74.29;96016.53;6103097;23;20030;-79
2022/11/19 17:03:38;;;;;;;2.35;1.73;;;;;;;7.69;74.31;96025.66;6097326;23;20077;-80
2022/11/19 17:06:08;;;;;;;2.13;1.75;;;;;;;7.70;74.79;96026.50;6097922;23;20025;-79
2022/11/19 17:08:37;;;;;;;1.40;1.33;;;;;;;7.69;74.60;96023.06;6097288;23;20546;-80
2022/11/19 17:14:18;;;;;;;2.70;2.50;;;;;;;7.67;74.52;96022.44;6097335;23;20370;-80
2022/11/19 17:16:48;;;;;;;3.05;2.78;;;;;;;7.62;74.28;96029.97;6097176;23;20101;-79
2022/11/19 17:19:24;;;;;;;3.25;2.95;;;;;;;7.59;74.73;96035.53;6097398;23;20022;-79
2022/11/19 17:21:57;;;;;;;2.80;2.58;;;;;;;7.60;75.48;96031.94;6097541;23;20015;-80
2022/11/19 17:24:31;;;;;;;2.42;2.22;;;;;;;7.65;76.04;96027.00;6098115;23;20021;-81
2022/11/19 17:27:03;;;;;;;3.05;2.75;;;;;;;7.69;75.70;96033.47;6097380;23;20036;-81
2022/11/19 17:29:38;;;;;;;2.97;2.40;;;;;;;7.69;75.60;96033.47;6098279;23;20019;-80
2022/11/19 17:32:11;;;;;;;2.60;2.40;;;;;;;7.70;75.65;96040.28;6097889;23;20021;-81
2022/11/19 17:34:53;;;;;;;3.20;2.90;;;;;;;7.70;75.44;96040.28;6098178;23;20018;-81
2022/11/19 17:37:23;;;;;;;2.70;2.33;;;;;;;7.70;74.85;96036.88;6097799;23;20097;-80
2022/11/19 17:39:53;;;;;;;2.90;2.38;;;;;;;7.67;74.65;96029.44;6097622;23;20380;-80
2022/11/19 17:45:10;;;;;;;4.57;4.07;;;;;;;7.59;74.41;96038.13;6097516;23;20053;-80
2022/11/19 17:47:39;;;;;;;3.63;3.33;;;;;;;7.54;74.78;96043.00;6097258;23;20097;-80
2022/11/19 17:50:14;;;;;;;3.30;3.00;;;;;;;7.52;75.00;96044.97;6097856;23;20069;-80
2022/11/19 17:52:43;;;;;;;3.58;3.28;;;;;;;7.51;74.69;96040.78;6097520;23;20387;-80
2022/11/19 17:55:18;;;;;;;4.13;3.72;;;;;;;7.51;75.00;96044.16;6097400;23;20167;-81
2022/11/19 17:57:49;;;;;;;3.80;3.28;;;;;;;7.57;75.46;96047.88;6097418;23;20022;-80
2022/11/19 18:00:19;;;;;;;3.20;2.90;;;;;;;7.60;75.60;96048.31;6097427;23;20399;-81
2022/11/19 18:02:49;;;;;;;4.63;3.00;;;;;;;7.64;76.44;96048.75;6098648;23;20046;-80
2022/11/19 18:05:25;;;;;;;2.92;2.72;;;;;;;7.68;75.21;96049.22;6097572;23;20078;-80
2022/11/19 18:08:02;;;;;;;2.70;2.50;;;;;;;7.70;76.56;96047.25;6097616;23;20037;-80
2022/11/19 18:10:48;;;;;;;2.67;2.00;;;;;;;7.73;75.86;96058.09;6097479;23;20358;-80
2022/11/19 18:23:59;;;;;;;2.22;2.03;;;;;;;7.86;76.90;96051.47;6063599;23;20026;-80
2022/11/19 18:26:43;;;;;;;0.80;0.80;;;;;;;7.90;76.43;96052.75;6097325;23;20060;-80
2022/11/19 18:29:11;;;;;;;0.90;0.90;;;;;;;7.93;76.92;96054.97;6097026;23;20018;-81
2022/11/19 18:31:44;;;;;;;1.13;1.08;;;;;;;7.95;77.75;96061.59;6096882;23;20022;-81
2022/11/19 18:34:18;;;;;;;0.82;0.82;;;;;;;7.96;77.07;96054.59;6096720;23;20514;-80
2022/11/19 18:36:49;;;;;;;0.70;0.70;;;;;;;7.97;76.98;96048.44;6097366;23;20023;-81
2022/11/19 18:39:18;;;;;;;0.70;0.70;;;;;;;7.98;76.21;96060.44;6096809;23;20019;-80
2022/11/19 18:42:02;;;;;;;0.65;0.65;;;;;;;7.98;76.38;96063.84;6097051;23;20024;-80
2022/11/19 18:44:32;;;;;;;1.00;0.98;;;;;;;8.00;77.08;96058.47;6097435;23;20018;-80
2022/11/19 18:47:04;;;;;;;0.90;0.90;;;;;;;8.00;77.21;96069.69;6096797;23;20019;-80
2022/11/19 18:49:35;;;;;;;1.20;1.10;;;;;;;8.00;76.01;96063.66;6097572;23;20022;-80
2022/11/19 18:52:13;;;;;;;1.27;1.10;;;;;;;7.98;75.99;96065.63;6097047;23;20249;-81
2022/11/19 18:54:45;;;;;;;1.40;1.30;;;;;;;7.95;75.92;96066.78;6096954;23;20025;-80
2022/11/19 18:57:14;;;;;;;4.22;2.00;;;;;;;7.96;77.05;96065.00;6096732;23;20065;-80
2022/11/19 18:59:43;;;;;;;1.20;1.10;;;;;;;7.95;76.02;96060.78;6095689;23;20041;-81
2022/11/19 19:02:17;;;;;;;0.82;0.82;;;;;;;7.90;75.10;96061.34;6096368;23;20038;-80
2022/11/19 19:04:45;;;;;;;1.17;1.15;;;;;;;7.88;74.46;96058.09;6096181;23;20518;-80
2022/11/19 19:07:19;;;;;;;1.83;1.70;;;;;;;7.86;74.40;96067.06;6096501;23;20026;-80
2022/11/19 19:09:48;;;;;;;2.22;2.03;;;;;;;7.86;74.94;96067.88;6096595;23;20320;-81
2022/11/19 19:12:18;;;;;;;3.45;2.40;;;;;;;7.86;75.92;96070.47;6096342;23;20421;-80
2022/11/19 19:14:50;;;;;;;3.92;2.80;;;;;;;7.89;77.09;96064.09;6096400;23;20030;-80
2022/11/19 19:17:19;;;;;;;3.43;3.13;;;;;;;7.94;77.39;96074.78;6096423;23;20354;-80
2022/11/19 19:19:48;;;;;;;3.25;2.95;;;;;;;7.95;77.19;96076.38;6096553;23;20241;-80
2022/11/19 19:22:17;;;;;;;3.03;2.42;;;;;;;7.94;76.35;96077.38;6096039;23;20101;-80
2022/11/19 19:24:47;;;;;;;3.00;2.55;;;;;;;7.92;76.48;96071.56;6096166;23;20085;-81
2022/11/19 19:27:19;;;;;;;2.30;2.10;;;;;;;7.93;76.69;96073.16;6096721;23;20093;-80
2022/11/19 19:29:47;;;;;;;2.47;2.20;;;;;;;7.88;75.61;96075.47;6097343;23;20093;-80
2022/11/19 19:32:16;;;;;;;2.65;2.40;;;;;;;7.82;76.27;96082.97;6097704;23;20019;-80
2022/11/19 19:34:44;;;;;;;3.03;2.72;;;;;;;7.81;75.74;96076.19;6096563;23;20018;-80
2022/11/19 19:37:13;;;;;;;2.20;2.00;;;;;;;7.81;76.13;96085.78;6095760;23;20022;-80
2022/11/19 19:39:41;;;;;;;2.47;2.28;;;;;;;7.78;75.58;96071.38;6096120;23;20467;-80
2022/11/19 19:42:22;;;;;;;2.40;2.20;;;;;;;7.75;74.83;96078.69;6096508;23;20018;-81
2022/11/19 19:44:50;;;;;;;2.97;2.30;;;;;;;7.71;75.64;96078.22;6097231;23;20038;-81
2022/11/19 19:47:19;;;;;;;3.97;3.33;;;;;;;7.69;75.24;96079.38;6097575;23;20046;-80
2022/11/19 19:49:48;;;;;;;3.72;3.42;;;;;;;7.63;74.95;96073.09;6095773;23;20101;-80
2022/11/19 19:52:17;;;;;;;4.00;3.63;;;;;;;7.59;75.57;96077.84;6096456;23;20102;-80
2022/11/19 19:54:45;;;;;;;5.88;4.53;;;;;;;7.60;76.30;96070.88;6096488;23;20082;-80
2022/11/19 19:57:16;;;;;;;4.45;3.88;;;;;;;7.61;76.15;96081.06;6095680;23;20022;-82
2022/11/19 19:59:45;;;;;;;6.47;5.15;;;;;;;7.65;76.31;96081.50;6095971;23;20093;-80
2022/11/19 20:02:15;;;;;;;5.13;4.63;;;;;;;7.67;76.32;96087.34;6095897;23;20015;-80
2022/11/19 20:04:43;;;;;;;5.35;4.78;;;;;;;7.69;76.66;96087.16;6095876;23;20021;-80
2022/11/19 20:07:12;;;;;;;6.43;5.38;;;;;;;7.73;76.91;96084.03;6096449;23;20045;-81
2022/11/19 20:09:39;;;;;;;5.50;4.95;;;;;;;7.79;77.76;96087.75;6096100;23;20038;-80
2022/11/19 20:12:07;;;;;;;5.70;5.10;;;;;;;7.83;77.94;96087.22;6096128;23;20648;-80
2022/11/19 20:14:43;;;;;;;5.65;5.15;;;;;;;7.89;78.95;96088.28;6095708;23;20042;-80
2022/11/19 20:17:11;;;;;;;5.97;5.22;;;;;;;7.90;78.11;96083.91;6097019;23;20022;-80
2022/11/19 20:19:39;;;;;;;6.13;5.50;;;;;;;7.95;78.20;96092.75;6098988;23;20022;-81
2022/11/19 20:22:08;;;;;;;6.05;5.45;;;;;;;7.98;78.11;96089.81;6097354;23;20053;-79
2022/11/19 20:24:36;;;;;;;5.43;4.93;;;;;;;8.02;78.40;96090.25;6094531;23;20074;-80
2022/11/19 20:27:04;;;;;;;6.47;5.88;;;;;;;8.05;78.54;96087.31;6095764;23;20030;-80
2022/11/19 20:29:32;;;;;;;6.63;6.03;;;;;;;8.08;78.42;96094.75;6095443;23;20494;-80
2022/11/19 20:32:01;;;;;;;7.20;6.20;;;;;;;8.10;78.90;96094.56;6097673;23;20424;-81
2022/11/19 20:34:29;;;;;;;7.07;6.18;;;;;;;8.11;78.25;96098.78;6097024;23;20022;-82
2022/11/19 20:37:00;;;;;;;6.32;5.70;;;;;;;8.11;77.78;96097.00;6102019;23;20078;-82
2022/11/19 20:39:28;;;;;;;5.78;5.28;;;;;;;8.09;77.10;96104.16;6098823;23;20022;-81
2022/11/19 20:44:42;;;;;;;5.30;4.72;;;;;;;8.01;77.42;96101.66;6095199;23;20022;-81
2022/11/19 20:47:11;;;;;;;6.00;4.93;;;;;;;8.01;78.09;96101.66;6094431;23;20026;-81
2022/11/19 20:49:38;;;;;;;5.43;4.90;;;;;;;7.99;77.69;96104.41;6095499;23;20029;-80
2022/11/19 20:52:07;;;;;;;5.55;5.03;;;;;;;8.00;77.68;96116.44;6094974;23;20467;-80
2022/11/19 20:54:34;;;;;;;7.10;4.93;;;;;;;8.01;77.77;96117.22;6095679;23;20101;-80
2022/11/19 20:57:02;;;;;;;6.30;4.85;;;;;;;8.04;77.72;96111.66;6095794;23;20018;-79
2022/11/19 20:59:31;;;;;;;8.63;6.25;;;;;;;8.07;77.76;96113.94;6097010;23;20034;-80
2022/11/19 21:01:58;;;;;;;8.00;6.05;;;;;;;8.09;77.53;96108.53;6097842;23;20053;-80
2022/11/19 21:04:30;;;;;;;8.18;5.60;;;;;;;8.08;77.45;96110.34;6097380;23;20493;-80
2022/11/19 21:06:58;;;;;;;7.55;6.15;;;;;;;8.10;77.12;96110.97;6097467;23;20124;-81
2022/11/19 21:09:28;;;;;;;9.10;6.75;;;;;;;8.12;78.06;96108.19;6097368;23;20022;-80
2022/11/19 21:11:56;;;;;;;7.10;5.63;;;;;;;8.12;77.58;96106.41;6097464;23;20542;-80
2022/11/19 21:14:24;;;;;;;6.85;5.53;;;;;;;8.13;77.11;96107.19;6097272;23;20026;-80
2022/11/19 21:16:52;;;;;;;6.80;5.38;;;;;;;8.14;76.63;96111.44;6097249;23;20109;-80
2022/11/19 21:19:20;;;;;;;6.13;5.22;;;;;;;8.14;76.44;96114.81;6097519;23;20426;-80
2022/11/19 21:21:49;;;;;;;5.18;4.68;;;;;;;8.12;76.31;96111.59;6096787;23;20038;-80
2022/11/19 21:24:17;;;;;;;5.90;5.32;;;;;;;8.12;76.72;96109.00;6097403;23;20023;-80
2022/11/19 21:26:45;;;;;;;7.35;5.47;;;;;;;8.11;76.70;96110.00;6097002;23;20019;-80
2022/11/19 21:29:13;;;;;;;6.68;5.63;;;;;;;8.09;76.45;96114.56;6096795;23;20109;-81
2022/11/19 21:31:43;;;;;;;5.40;4.90;;;;;;;8.10;76.27;96104.97;6097406;23;20023;-81
2022/11/19 21:34:13;;;;;;;5.45;4.95;;;;;;;8.08;76.54;96107.75;6096938;23;20022;-81
2022/11/19 21:36:42;;;;;;;5.85;5.35;;;;;;;8.08;76.71;96107.75;6096772;23;20125;-81
2022/11/19 21:39:13;;;;;;;5.75;5.15;;;;;;;8.08;76.58;96106.94;6098867;23;20444;-81
2022/11/19 21:41:41;;;;;;;5.43;4.93;;;;;;;8.07;76.25;96106.13;6102512;23;20028;-78
2022/11/19 21:44:09;;;;;;;5.88;5.32;;;;;;;8.05;76.21;96108.09;6099843;23;20029;-80
2022/11/19 21:46:37;;;;;;;5.80;5.18;;;;;;;8.06;76.62;96104.50;6100794;23;20074;-79
2022/11/19 21:49:05;;;;;;;6.05;5.38;;;;;;;8.05;76.08;96106.31;6101513;23;20023;-77
2022/11/19 21:51:32;;;;;;;6.45;5.30;;;;;;;8.06;76.08;96107.09;6101966;23;20109;-78
2022/11/19 21:54:00;;;;;;;7.05;5.60;;;;;;;8.05;76.68;96108.91;6100214;23;20022;-81
2022/11/19 21:56:29;;;;;;;5.30;4.75;;;;;;;8.07;76.97;96111.34;6102948;23;20022;-79
2022/11/19 21:59:04;;;;;;;6.40;5.00;;;;;;;8.09;76.74;96111.97;6099619;23;20484;-79
2022/11/19 22:01:32;;;;;;;5.82;5.22;;;;;;;8.08;76.89;96107.75;6099863;23;20022;-79
2022/11/19 22:03:59;;;;;;;7.82;5.10;;;;;;;8.07;76.52;96111.34;6099840;23;20019;-79
2022/11/19 22:06:27;;;;;;;5.72;4.75;;;;;;;8.06;76.11;96114.91;6098472;23;20022;-79
2022/11/19 22:08:54;;;;;;;4.88;4.38;;;;;;;8.04;75.82;96122.06;6073136;23;20042;-79
2022/11/19 22:11:31;;;;;;;3.35;2.92;;;;;;;8.00;75.45;96120.78;6098161;23;20029;-78
2022/11/19 22:14:02;;;;;;;3.22;2.70;;;;;;;7.99;75.97;96119.19;6100184;23;20019;-79
2022/11/19 22:16:32;;;;;;;2.83;2.63;;;;;;;7.97;75.58;96118.56;6099055;23;20034;-79
2022/11/19 22:18:59;;;;;;;3.80;2.72;;;;;;;7.94;75.34;96116.34;6097985;23;20027;-78
2022/11/19 22:21:28;;;;;;;2.28;2.15;;;;;;;7.90;75.31;96120.25;6098612;23;20029;-78
2022/11/19 22:23:56;;;;;;;2.85;2.65;;;;;;;7.88;75.45;96125.63;6098550;23;20022;-79
2022/11/19 22:26:24;;;;;;;3.25;2.95;;;;;;;7.87;75.87;96125.78;6098334;23;20077;-79
2022/11/19 22:28:51;;;;;;;3.33;2.95;;;;;;;7.87;76.06;96130.97;6098541;23;20022;-78
2022/11/19 22:31:20;;;;;;;3.17;2.75;;;;;;;7.87;75.64;96130.97;6098557;23;20416;-81
2022/11/19 22:33:50;;;;;;;2.40;2.20;;;;;;;7.82;75.27;96124.53;6098746;23;20045;-78
2022/11/19 22:36:19;;;;;;;2.67;2.40;;;;;;;7.82;75.32;96118.53;6098529;23;20463;-78
2022/11/19 22:38:47;;;;;;;3.13;2.67;;;;;;;7.79;75.50;96114.50;6097986;23;20105;-79
2022/11/19 22:41:17;;;;;;;2.50;2.30;;;;;;;7.79;75.49;96114.50;6098533;23;20445;-79
2022/11/19 22:43:45;;;;;;;2.70;2.50;;;;;;;7.77;75.71;96111.28;6098278;23;20105;-79
2022/11/19 22:46:13;;;;;;;3.03;2.75;;;;;;;7.77;75.67;96106.09;6099892;23;20022;-79
2022/11/19 22:48:42;;;;;;;3.40;2.67;;;;;;;7.77;75.86;96113.88;6099288;23;20022;-79
2022/11/19 22:51:13;;;;;;;3.42;3.13;;;;;;;7.76;75.84;96112.28;6099336;23;20022;-78
2022/11/19 22:53:41;;;;;;;4.00;3.53;;;;;;;7.77;76.33;96110.47;6099707;23;20031;-79
2022/11/19 22:56:11;;;;;;;4.40;4.00;;;;;;;7.78;76.64;96112.91;6098764;23;20535;-78
2022/11/19 22:58:38;;;;;;;4.82;4.10;;;;;;;7.82;76.84;96118.53;6098568;23;20455;-78
2022/11/19 23:01:07;;;;;;;6.10;4.78;;;;;;;7.84;76.61;96113.97;6099886;23;20034;-79
2022/11/19 23:03:35;;;;;;;5.50;4.97;;;;;;;7.86;76.92;96108.63;6098664;23;20022;-78
2022/11/19 23:06:04;;;;;;;7.10;6.22;;;;;;;7.86;76.65;96106.81;6100457;23;20116;-78
2022/11/19 23:08:32;;;;;;;8.45;7.13;;;;;;;7.88;76.59;96110.03;6097613;23;20029;-79
2022/11/19 23:11:01;;;;;;;6.85;6.22;;;;;;;7.90;76.36;96115.88;6098222;23;20332;-79
2022/11/19 23:13:30;;;;;;;8.77;6.60;;;;;;;7.92;76.10;96119.09;6098106;23;20479;-77
2022/11/19 23:16:00;;;;;;;7.30;6.60;;;;;;;7.92;76.19;96118.31;6098411;23;20023;-80
2022/11/19 23:18:29;;;;;;;9.32;7.85;;;;;;;7.92;75.80;96120.91;6099723;23;20346;-79
2022/11/19 23:20:58;;;;;;;9.38;7.80;;;;;;;7.92;75.48;96123.50;6099955;23;20026;-79
2022/11/19 23:23:27;;;;;;;7.60;6.82;;;;;;;7.92;75.68;96128.69;6099662;23;20018;-78
2022/11/19 23:25:56;;;;;;;8.38;7.50;;;;;;;7.92;75.87;96119.09;6099552;23;20084;-79
2022/11/19 23:28:24;;;;;;;9.57;7.97;;;;;;;7.93;75.84;96119.91;6099133;23;20022;-78
2022/11/19 23:30:52;;;;;;;8.30;7.38;;;;;;;7.94;75.55;96121.53;6099807;23;20035;-78
2022/11/19 23:33:20;;;;;;;8.43;6.40;;;;;;;7.94;75.98;96121.53;6099917;23;20078;-78
2022/11/19 23:35:48;;;;;;;8.60;6.18;;;;;;;7.94;75.84;96122.31;6099682;23;20025;-78
2022/11/19 23:38:16;;;;;;;7.22;6.50;;;;;;;7.94;75.47;96122.31;6097718;23;20026;-78
2022/11/19 23:40:45;;;;;;;6.93;6.25;;;;;;;7.92;74.88;96108.72;6097700;23;20467;-80
2022/11/19 23:43:13;;;;;;;7.85;6.50;;;;;;;7.92;74.93;96121.69;6097781;23;20344;-79
2022/11/19 23:45:40;;;;;;;7.55;6.30;;;;;;;7.91;75.06;96120.06;6098299;23;20030;-79
2022/11/19 23:48:08;;;;;;;8.65;6.10;;;;;;;7.89;75.20;96114.25;6097661;23;20022;-79
2022/11/19 23:50:35;;;;;;;6.50;5.90;;;;;;;7.90;75.38;96115.06;6098038;23;20489;-79
2022/11/19 23:53:03;;;;;;;7.32;5.95;;;;;;;7.90;75.20;96115.06;6098353;23;20022;-78
2022/11/19 23:55:30;;;;;;;6.13;5.18;;;;;;;7.89;74.59;96121.22;6098156;23;20459;-79
2022/11/19 23:57:59;;;;;;;7.63;5.95;;;;;;;7.88;74.21;96115.22;6098412;23;20033;-78
